createdAt,value
2022-10-12T00:01:02.246Z,12.13
2022-10-12T00:03:30.941Z,9.80
2022-10-12T00:06:06.652Z,10.07
2022-10-12T00:08:37.004Z,10.57
2022-10-12T00:11:06.100Z,10.53
2022-10-12T00:13:34.397Z,10.07
2022-10-12T00:16:04.835Z,10.43
2022-10-12T00:18:33.490Z,15.43
2022-10-12T00:21:03.348Z,10.57
2022-10-12T00:23:32.191Z,10.50
2022-10-12T00:26:05.187Z,10.90
2022-10-12T00:28:34.234Z,12.60
2022-10-12T00:31:03.336Z,12.70
2022-10-12T00:33:31.681Z,15.67
2022-10-12T00:35:59.947Z,11.97
2022-10-12T00:38:28.180Z,11.47
2022-10-12T00:40:56.426Z,14.33
2022-10-12T00:43:34.262Z,11.60
2022-10-12T00:46:04.745Z,11.63
2022-10-12T00:48:33.175Z,13.97
2022-10-12T00:51:03.509Z,10.80
2022-10-12T00:53:36.992Z,11.67
2022-10-12T00:56:11.922Z,12.30
2022-10-12T00:58:41.638Z,12.47
2022-10-12T01:01:10.653Z,12.40
2022-10-12T01:03:39.350Z,10.63
2022-10-12T01:06:08.894Z,15.23
2022-10-12T01:08:37.958Z,12.30
2022-10-12T01:11:06.778Z,11.93
2022-10-12T01:13:35.207Z,11.80
2022-10-12T01:16:12.607Z,12.23
2022-10-12T01:18:46.922Z,11.20
2022-10-12T01:21:21.057Z,11.57
2022-10-12T01:24:31.222Z,11.40
2022-10-12T01:27:08.315Z,14.30
2022-10-12T01:29:56.143Z,12.83
2022-10-12T01:32:27.985Z,14.27
2022-10-12T01:35:03.387Z,12.43
2022-10-12T01:37:39.574Z,22.80
2022-10-12T01:40:13.339Z,14.20
2022-10-12T01:42:45.095Z,11.70
2022-10-12T01:45:17.189Z,14.37
2022-10-12T01:47:48.683Z,11.90
2022-10-12T01:50:18.850Z,12.40
2022-10-12T01:52:58.392Z,11.67
2022-10-12T01:55:39.912Z,14.13
2022-10-12T01:58:28.545Z,14.70
2022-10-12T02:01:06.809Z,16.20
2022-10-12T02:03:41.308Z,16.03
2022-10-12T02:06:14.889Z,14.03
2022-10-12T02:08:47.793Z,11.43
2022-10-12T02:11:18.574Z,14.83
2022-10-12T02:13:52.335Z,11.93
2022-10-12T02:16:25.187Z,11.40
2022-10-12T02:18:55.962Z,13.30
2022-10-12T02:21:28.448Z,15.60
2022-10-12T02:23:59.214Z,15.67
2022-10-12T02:26:29.004Z,13.60
2022-10-12T02:28:59.762Z,12.07
2022-10-12T02:31:36.733Z,13.37
2022-10-12T02:34:11.222Z,14.27
2022-10-12T02:36:45.062Z,11.57
2022-10-12T02:39:17.656Z,14.30
2022-10-12T02:41:50.991Z,12.50
2022-10-12T02:44:22.434Z,16.40
2022-10-12T02:46:53.692Z,10.60
2022-10-12T02:49:24.546Z,11.33
2022-10-12T02:51:53.114Z,17.20
2022-10-12T02:54:21.736Z,14.43
2022-10-12T02:56:50.117Z,10.37
2022-10-12T02:59:19.898Z,12.00
2022-10-12T03:01:48.201Z,14.47
2022-10-12T03:04:18.098Z,11.73
2022-10-12T03:06:46.374Z,17.03
2022-10-12T03:09:14.665Z,15.20
2022-10-12T03:11:44.696Z,16.17
2022-10-12T03:14:13.383Z,12.07
2022-10-12T03:16:41.860Z,13.40
2022-10-12T03:19:10.284Z,14.27
2022-10-12T03:21:39.919Z,10.67
2022-10-12T03:24:08.592Z,11.40
2022-10-12T03:26:36.877Z,12.33
2022-10-12T03:29:05.385Z,15.10
2022-10-12T03:31:33.697Z,14.07
2022-10-12T03:34:02.025Z,18.53
2022-10-12T03:36:30.835Z,10.97
2022-10-12T03:39:00.530Z,10.87
2022-10-12T03:41:28.873Z,11.67
2022-10-12T03:43:57.091Z,14.50
2022-10-12T03:46:25.371Z,9.43
2022-10-12T03:48:53.627Z,12.70
2022-10-12T03:51:21.981Z,18.13
2022-10-12T03:53:50.317Z,9.00
2022-10-12T03:56:20.016Z,11.33
2022-10-12T03:58:48.240Z,11.63
2022-10-12T04:01:16.511Z,13.03
2022-10-12T04:03:44.802Z,14.70
2022-10-12T04:06:13.044Z,19.40
2022-10-12T04:08:41.273Z,28.07
2022-10-12T04:11:09.515Z,22.43
2022-10-12T04:13:39.130Z,17.87
2022-10-12T04:16:08.727Z,16.40
2022-10-12T04:18:37.393Z,13.97
2022-10-12T04:21:10.220Z,24.50
2022-10-12T04:23:38.435Z,25.30
2022-10-12T04:26:07.030Z,23.83
2022-10-12T04:28:35.611Z,21.90
2022-10-12T04:31:05.357Z,17.87
2022-10-12T04:33:33.637Z,13.53
2022-10-12T04:36:01.909Z,18.13
2022-10-12T04:38:30.148Z,12.87
2022-10-12T04:40:58.837Z,12.87
2022-10-12T04:43:27.070Z,12.87
2022-10-12T04:45:56.585Z,12.93
2022-10-12T04:48:27.339Z,14.30
2022-10-12T04:50:55.575Z,14.07
2022-10-12T04:53:23.895Z,15.20
2022-10-12T04:55:52.231Z,13.10
2022-10-12T04:58:20.459Z,12.50
2022-10-12T05:00:49.758Z,12.00
2022-10-12T05:03:17.970Z,11.57
2022-10-12T05:05:47.812Z,11.50
2022-10-12T05:08:16.172Z,12.37
2022-10-12T05:10:46.268Z,11.03
2022-10-12T05:13:14.934Z,12.23
2022-10-12T05:15:43.739Z,9.53
2022-10-12T05:18:12.153Z,7.87
2022-10-12T05:20:40.469Z,12.50
2022-10-12T05:23:12.005Z,11.13
2022-10-12T05:25:40.343Z,11.33
2022-10-12T05:28:08.684Z,10.00
2022-10-12T05:30:36.965Z,9.43
2022-10-12T05:33:05.363Z,11.63
2022-10-12T05:35:33.623Z,9.67
2022-10-12T05:38:01.855Z,10.63
2022-10-12T05:40:31.554Z,12.50
2022-10-12T05:42:59.790Z,14.80
2022-10-12T05:45:28.064Z,16.07
2022-10-12T05:47:56.274Z,19.87
2022-10-12T05:50:24.566Z,14.97
2022-10-12T05:52:52.805Z,21.33
2022-10-12T05:55:21.042Z,17.37
2022-10-12T05:57:51.995Z,10.50
2022-10-12T06:00:23.896Z,11.17
2022-10-12T06:02:52.175Z,9.80
2022-10-12T06:05:20.504Z,15.00
2022-10-12T06:07:48.793Z,8.90
2022-10-12T06:10:17.120Z,14.47
2022-10-12T06:12:45.397Z,14.93
2022-10-12T06:15:15.176Z,16.63
2022-10-12T06:17:43.469Z,11.43
2022-10-12T06:20:12.873Z,9.33
2022-10-12T06:22:41.455Z,9.43
2022-10-12T06:25:10.268Z,9.03
2022-10-12T06:27:38.527Z,9.93
2022-10-12T06:30:07.975Z,9.80
2022-10-12T06:32:37.949Z,12.27
2022-10-12T06:35:07.563Z,9.30
2022-10-12T06:37:49.652Z,10.93
2022-10-12T06:40:31.356Z,12.20
2022-10-12T06:43:02.953Z,8.57
2022-10-12T06:45:31.834Z,7.80
2022-10-12T06:48:01.878Z,10.33
2022-10-12T06:50:30.124Z,9.37
2022-10-12T06:52:58.589Z,7.60
2022-10-12T06:55:27.192Z,12.00
2022-10-12T06:57:56.728Z,12.13
2022-10-12T07:00:25.178Z,12.17
2022-10-12T07:02:54.228Z,11.60
2022-10-12T07:05:25.275Z,9.27
2022-10-12T07:07:53.686Z,11.63
2022-10-12T07:10:22.060Z,11.63
2022-10-12T07:12:50.394Z,14.17
2022-10-12T07:15:18.971Z,14.87
2022-10-12T07:17:47.349Z,10.85
2022-10-12T07:20:15.785Z,15.20
2022-10-12T07:22:45.835Z,12.00
2022-10-12T07:25:14.151Z,12.20
2022-10-12T07:27:42.491Z,9.53
2022-10-12T07:30:13.062Z,11.23
2022-10-12T07:32:42.584Z,8.53
2022-10-12T07:35:10.976Z,7.90
2022-10-12T07:37:39.561Z,10.63
2022-10-12T07:40:10.814Z,10.10
2022-10-12T07:42:59.014Z,9.57
2022-10-12T07:45:28.685Z,8.67
2022-10-12T07:47:57.533Z,11.03
2022-10-12T07:50:26.362Z,9.13
2022-10-12T07:52:54.706Z,12.20
2022-10-12T07:55:24.398Z,8.73
2022-10-12T07:57:52.822Z,7.57
2022-10-12T08:00:22.273Z,11.07
2022-10-12T08:02:50.538Z,10.03
2022-10-12T08:05:21.265Z,9.77
2022-10-12T08:07:50.064Z,10.37
2022-10-12T08:10:19.057Z,7.87
2022-10-12T08:12:52.048Z,9.80
2022-10-12T08:15:21.067Z,13.33
2022-10-12T08:17:49.364Z,11.93
2022-10-12T08:20:17.690Z,11.00
2022-10-12T08:22:45.992Z,10.53
2022-10-12T08:25:14.403Z,9.53
2022-10-12T08:27:42.705Z,14.47
2022-10-12T08:30:13.982Z,10.70
2022-10-12T08:32:42.276Z,12.17
2022-10-12T08:35:10.756Z,9.23
2022-10-12T08:37:39.530Z,9.70
2022-10-12T08:40:11.301Z,9.27
2022-10-12T08:42:46.652Z,8.33
2022-10-12T08:45:31.982Z,9.70
2022-10-12T08:48:06.799Z,7.73
2022-10-12T08:50:37.015Z,7.32
2022-10-12T08:53:22.990Z,11.43
2022-10-12T08:55:52.732Z,8.32
2022-10-12T08:58:22.965Z,9.50
2022-10-12T09:01:05.690Z,9.88
2022-10-12T09:03:48.244Z,8.27
2022-10-12T09:06:20.091Z,11.02
2022-10-12T09:09:03.276Z,9.65
2022-10-12T09:11:47.654Z,12.93
2022-10-12T09:14:20.126Z,12.38
2022-10-12T09:16:54.211Z,7.85
2022-10-12T09:19:25.300Z,11.32
2022-10-12T09:21:53.599Z,7.85
2022-10-12T09:24:26.644Z,9.65
2022-10-12T09:27:00.537Z,10.77
2022-10-12T09:29:40.688Z,13.80
2022-10-12T09:32:43.534Z,9.60
2022-10-12T09:35:14.906Z,8.98
2022-10-12T09:38:02.902Z,8.60
2022-10-12T09:40:33.391Z,8.95
2022-10-12T09:43:04.975Z,6.25
2022-10-12T09:45:35.678Z,8.60
2022-10-12T09:48:19.791Z,7.32
2022-10-12T09:50:52.058Z,6.10
2022-10-12T09:53:33.498Z,7.47
2022-10-12T09:56:10.686Z,11.45
2022-10-12T09:58:51.260Z,11.00
2022-10-12T10:01:24.223Z,6.88
2022-10-12T10:04:14.783Z,5.35
2022-10-12T10:06:45.190Z,8.27
2022-10-12T10:09:30.826Z,6.30
2022-10-12T10:11:59.443Z,9.15
2022-10-12T10:14:27.813Z,7.20
2022-10-12T10:16:56.060Z,7.78
2022-10-12T10:19:26.663Z,8.02
2022-10-12T10:21:56.358Z,9.50
2022-10-12T10:24:28.685Z,6.30
2022-10-12T10:26:58.884Z,5.63
2022-10-12T10:29:36.642Z,9.63
2022-10-12T10:32:24.318Z,11.73
2022-10-12T10:35:05.631Z,6.70
2022-10-12T10:37:35.210Z,4.70
2022-10-12T10:40:04.046Z,6.25
2022-10-12T10:42:34.868Z,8.00
2022-10-12T10:45:07.124Z,7.78
2022-10-12T10:47:42.770Z,5.18
2022-10-12T10:50:27.047Z,3.42
2022-10-12T10:52:58.261Z,4.63
2022-10-12T10:55:32.987Z,6.95
2022-10-12T10:58:06.191Z,7.68
2022-10-12T11:00:40.221Z,10.65
2022-10-12T11:03:17.442Z,7.38
2022-10-12T11:05:55.955Z,9.40
2022-10-12T11:08:27.322Z,12.73
2022-10-12T11:11:00.611Z,4.88
2022-10-12T11:13:34.995Z,7.05
2022-10-12T11:16:09.281Z,8.05
2022-10-12T11:18:41.974Z,11.25
2022-10-12T11:21:16.742Z,6.90
2022-10-12T11:23:50.520Z,7.85
2022-10-12T11:26:27.745Z,6.75
2022-10-12T11:29:00.163Z,3.58
2022-10-12T11:31:33.912Z,6.60
2022-10-12T11:34:08.955Z,3.58
2022-10-12T11:36:55.861Z,9.40
2022-10-12T11:39:39.071Z,6.63
2022-10-12T11:42:27.101Z,3.75
2022-10-12T11:44:55.918Z,6.68
2022-10-12T11:47:33.492Z,5.78
2022-10-12T11:50:05.159Z,7.05
2022-10-12T11:52:39.361Z,8.73
2022-10-12T11:55:28.254Z,4.45
2022-10-12T11:58:00.289Z,4.78
2022-10-12T12:00:46.142Z,5.10
2022-10-12T12:03:20.819Z,6.93
2022-10-12T12:05:49.169Z,7.00
2022-10-12T12:08:46.412Z,6.75
2022-10-12T12:11:22.465Z,4.57
2022-10-12T12:13:51.232Z,7.82
2022-10-12T12:16:32.863Z,5.43
2022-10-12T12:19:38.548Z,6.55
2022-10-12T12:22:34.410Z,8.70
2022-10-12T12:25:24.976Z,6.03
2022-10-12T12:27:55.999Z,7.03
2022-10-12T12:30:42.284Z,9.43
2022-10-12T12:33:35.180Z,6.47
2022-10-12T12:36:06.596Z,9.00
2022-10-12T12:38:36.424Z,5.28
2022-10-12T12:41:10.423Z,6.65
2022-10-12T12:43:57.465Z,9.43
2022-10-12T12:46:47.934Z,5.97
2022-10-12T12:49:30.305Z,8.15
2022-10-12T12:51:59.905Z,4.47
2022-10-12T12:54:29.185Z,6.53
2022-10-12T12:57:29.656Z,6.00
2022-10-12T13:00:21.469Z,6.32
2022-10-12T13:03:13.014Z,5.25
2022-10-12T13:06:22.507Z,5.63
2022-10-12T13:09:30.920Z,5.13
2022-10-12T13:12:16.405Z,7.47
2022-10-12T13:15:03.328Z,4.75
2022-10-12T13:18:18.305Z,4.38
2022-10-12T13:20:51.868Z,4.57
2022-10-12T13:23:23.984Z,4.35
2022-10-12T13:25:57.174Z,5.68
2022-10-12T13:28:28.547Z,4.28
2022-10-12T13:31:03.451Z,6.68
2022-10-12T13:33:34.991Z,5.32
2022-10-12T13:36:06.661Z,6.72
2022-10-12T13:38:39.120Z,5.88
2022-10-12T13:41:10.352Z,7.10
2022-10-12T13:43:45.044Z,8.73
2022-10-12T13:46:35.241Z,4.03
2022-10-12T13:49:03.894Z,5.00
2022-10-12T13:51:32.646Z,7.90
2022-10-12T13:54:00.978Z,3.72
2022-10-12T13:56:31.095Z,7.28
2022-10-12T13:59:04.313Z,5.60
2022-10-12T14:01:49.675Z,5.13
2022-10-12T14:04:17.975Z,5.38
2022-10-12T14:06:52.049Z,8.52
2022-10-12T14:09:23.944Z,8.95
2022-10-12T14:11:54.553Z,7.35
2022-10-12T14:14:33.169Z,6.75
2022-10-12T14:17:02.938Z,5.55
2022-10-12T14:19:45.875Z,7.90
2022-10-12T14:22:22.850Z,5.22
2022-10-12T14:24:59.298Z,5.88
2022-10-12T14:27:47.486Z,6.68
2022-10-12T14:30:21.197Z,10.38
2022-10-12T14:32:56.073Z,9.57
2022-10-12T14:35:29.360Z,6.10
2022-10-12T14:37:59.370Z,7.38
2022-10-12T14:40:32.562Z,8.18
2022-10-12T14:43:04.031Z,7.78
2022-10-12T14:45:33.827Z,5.53
2022-10-12T14:48:05.124Z,8.63
2022-10-12T14:50:33.945Z,9.43
2022-10-12T14:53:05.155Z,5.80
2022-10-12T14:55:35.225Z,5.95
2022-10-12T14:58:03.809Z,5.68
2022-10-12T15:00:34.357Z,7.97
2022-10-12T15:03:05.015Z,7.50
2022-10-12T15:05:34.822Z,8.70
2022-10-12T15:08:07.580Z,8.40
2022-10-12T15:10:37.162Z,8.82
2022-10-12T15:13:05.446Z,15.25
2022-10-12T15:15:39.358Z,6.20
2022-10-12T15:18:09.295Z,10.18
2022-10-12T15:20:37.712Z,4.03
2022-10-12T15:23:06.355Z,6.35
2022-10-12T15:25:42.757Z,4.85
2022-10-12T15:28:11.097Z,6.18
2022-10-12T15:30:47.507Z,8.95
2022-10-12T15:33:29.500Z,6.50
2022-10-12T15:35:58.206Z,6.40
2022-10-12T15:38:26.507Z,8.00
2022-10-12T15:40:58.134Z,12.88
2022-10-12T15:43:26.576Z,7.20
2022-10-12T15:45:56.553Z,11.60
2022-10-12T15:48:24.856Z,9.68
2022-10-12T15:50:54.488Z,11.07
2022-10-12T15:53:25.176Z,10.70
2022-10-12T15:55:54.035Z,13.30
2022-10-12T15:58:22.867Z,11.32
2022-10-12T16:00:51.794Z,11.55
2022-10-12T16:03:26.056Z,7.20
2022-10-12T16:05:56.090Z,7.88
2022-10-12T16:08:24.673Z,11.85
2022-10-12T16:10:53.213Z,14.40
2022-10-12T16:13:21.573Z,10.50
2022-10-12T16:15:49.786Z,9.10
2022-10-12T16:18:18.058Z,11.18
2022-10-12T16:20:52.478Z,13.43
2022-10-12T16:23:25.242Z,13.32
2022-10-12T16:25:53.683Z,14.80
2022-10-12T16:28:22.893Z,17.53
2022-10-12T16:30:51.332Z,12.07
2022-10-12T16:33:20.356Z,15.47
2022-10-12T16:35:48.707Z,11.57
2022-10-12T16:38:19.848Z,16.17
2022-10-12T16:40:50.304Z,13.53
2022-10-12T16:43:19.575Z,13.50
2022-10-12T16:45:56.706Z,16.13
2022-10-12T16:48:24.963Z,13.80
2022-10-12T16:50:53.281Z,19.17
2022-10-12T16:53:21.525Z,13.07
2022-10-12T16:55:51.187Z,16.13
2022-10-12T16:58:19.511Z,18.57
2022-10-12T17:00:47.817Z,18.43
2022-10-12T17:03:16.125Z,20.50
2022-10-12T17:05:44.362Z,31.97
2022-10-12T17:08:15.483Z,25.63
2022-10-12T17:10:45.475Z,34.30
2022-10-12T17:13:15.119Z,29.47
2022-10-12T17:15:43.743Z,24.63
2022-10-12T17:18:12.063Z,25.67
2022-10-12T17:20:40.282Z,23.63
2022-10-12T17:23:08.541Z,19.30
2022-10-12T17:25:36.817Z,22.10
2022-10-12T17:28:05.096Z,28.30
2022-10-12T17:30:38.385Z,18.50
2022-10-12T17:33:06.682Z,23.80
2022-10-12T17:35:34.914Z,21.93
2022-10-12T17:38:03.185Z,23.13
2022-10-12T17:40:31.383Z,22.63
2022-10-12T17:42:59.601Z,22.63
2022-10-12T17:45:28.030Z,19.33
2022-10-12T17:47:57.673Z,29.10
2022-10-12T17:50:25.912Z,24.97
2022-10-12T17:52:54.876Z,18.37
2022-10-12T17:55:47.108Z,23.87
2022-10-12T17:58:11.411Z,24.10
2022-10-12T18:00:39.785Z,20.90
2022-10-12T18:03:10.117Z,23.97
2022-10-12T18:05:38.377Z,24.10
2022-10-12T18:08:07.017Z,24.33
2022-10-12T18:10:35.270Z,25.13
2022-10-12T18:13:03.473Z,21.90
2022-10-12T18:15:31.704Z,20.00
2022-10-12T18:17:59.921Z,17.93
2022-10-12T18:20:29.561Z,21.87
2022-10-12T18:22:58.508Z,17.00
2022-10-12T18:25:26.742Z,18.57
2022-10-12T18:27:54.973Z,24.53
2022-10-12T18:30:23.384Z,21.77
2022-10-12T18:32:51.629Z,18.57
2022-10-12T18:35:20.001Z,19.20
2022-10-12T18:37:49.646Z,31.57
2022-10-12T18:40:17.956Z,24.10
2022-10-12T18:42:46.319Z,21.70
2022-10-12T18:45:14.843Z,16.50
2022-10-12T18:47:43.111Z,26.70
2022-10-12T18:50:11.578Z,21.47
2022-10-12T18:52:39.775Z,25.23
2022-10-12T18:55:10.282Z,18.63
2022-10-12T18:57:40.068Z,19.57
2022-10-12T19:00:10.827Z,25.03
2022-10-12T19:02:39.134Z,21.90
2022-10-12T19:05:07.786Z,20.77
2022-10-12T19:07:36.448Z,19.33
2022-10-12T19:10:09.842Z,18.90
2022-10-12T19:12:42.142Z,19.73
2022-10-12T19:15:13.101Z,21.43
2022-10-12T19:17:41.414Z,21.43
2022-10-12T19:20:10.463Z,19.70
2022-10-12T19:22:38.670Z,22.27
2022-10-12T19:25:08.209Z,20.33
2022-10-12T19:27:37.913Z,18.93
2022-10-12T19:30:07.461Z,23.77
2022-10-12T19:32:35.805Z,19.77
2022-10-12T19:35:04.128Z,15.83
2022-10-12T19:37:32.350Z,22.00
2022-10-12T19:40:05.177Z,22.47
2022-10-12T19:42:37.047Z,21.50
2022-10-12T19:45:05.790Z,24.30
2022-10-12T19:47:34.866Z,19.30
2022-10-12T19:50:03.344Z,19.53
2022-10-12T19:52:31.623Z,20.37
2022-10-12T19:54:59.841Z,18.33
2022-10-12T19:57:28.393Z,18.87
2022-10-12T19:59:58.003Z,16.83
2022-10-12T20:02:26.229Z,18.23
2022-10-12T20:04:54.687Z,16.10
2022-10-12T20:07:22.943Z,20.53
2022-10-12T20:09:51.155Z,17.60
2022-10-12T20:12:19.627Z,20.20
2022-10-12T20:14:48.283Z,15.73
2022-10-12T20:17:17.931Z,19.17
2022-10-12T20:19:46.242Z,16.23
2022-10-12T20:22:14.535Z,16.07
2022-10-12T20:24:42.825Z,17.27
2022-10-12T20:27:11.255Z,18.10
2022-10-12T20:29:40.136Z,23.77
2022-10-12T20:32:08.347Z,11.70
2022-10-12T20:34:38.057Z,14.37
2022-10-12T20:37:06.312Z,19.83
2022-10-12T20:39:34.762Z,17.07
2022-10-12T20:42:02.979Z,14.63
2022-10-12T20:44:31.202Z,19.30
2022-10-12T20:46:59.424Z,16.80
2022-10-12T20:49:27.759Z,17.33
2022-10-12T20:51:57.378Z,14.00
2022-10-12T20:54:25.583Z,18.07
2022-10-12T20:56:53.861Z,19.20
2022-10-12T20:59:22.161Z,20.07
2022-10-12T21:01:50.442Z,16.90
2022-10-12T21:04:18.730Z,16.67
2022-10-12T21:06:46.955Z,22.60
2022-10-12T21:09:16.747Z,17.80
2022-10-12T21:11:44.951Z,16.33
2022-10-12T21:14:13.549Z,20.20
2022-10-12T21:16:41.840Z,17.80
2022-10-12T21:19:18.248Z,17.83
2022-10-12T21:21:46.595Z,15.27
2022-10-12T21:24:16.983Z,18.97
2022-10-12T21:26:45.528Z,16.87
2022-10-12T21:29:14.453Z,20.83
2022-10-12T21:31:42.674Z,17.00
2022-10-12T21:34:12.391Z,19.03
2022-10-12T21:36:40.957Z,21.73
2022-10-12T21:39:12.002Z,16.63
2022-10-12T21:41:42.096Z,19.27
2022-10-12T21:44:11.183Z,26.33
2022-10-12T21:46:39.433Z,24.03
2022-10-12T21:49:09.043Z,16.40
2022-10-12T21:51:38.315Z,24.30
2022-10-12T21:54:07.407Z,25.10
2022-10-12T21:56:37.750Z,15.80
2022-10-12T21:59:08.282Z,16.50
2022-10-12T22:01:38.127Z,17.13
2022-10-12T22:04:08.443Z,17.57
2022-10-12T22:06:36.749Z,13.33
2022-10-12T22:09:08.668Z,19.77
2022-10-12T22:11:38.640Z,19.57
2022-10-12T22:14:10.910Z,16.73
2022-10-12T22:16:39.375Z,15.57
2022-10-12T22:19:09.239Z,17.07
2022-10-12T22:21:37.919Z,13.00
2022-10-12T22:24:06.687Z,16.13
2022-10-12T22:26:35.302Z,18.57
2022-10-12T22:29:05.152Z,18.17
2022-10-12T22:31:35.451Z,18.60
2022-10-12T22:34:03.705Z,16.00
2022-10-12T22:36:32.318Z,16.57
2022-10-12T22:39:01.184Z,12.00
2022-10-12T22:41:29.476Z,14.10
2022-10-12T22:43:57.983Z,15.50
2022-10-12T22:46:26.963Z,21.63
2022-10-12T22:48:56.882Z,15.23
2022-10-12T22:51:31.441Z,15.83
2022-10-12T22:54:00.357Z,13.43
2022-10-12T22:56:29.237Z,18.90
2022-10-12T22:58:58.818Z,14.00
2022-10-12T23:01:27.798Z,16.10
2022-10-12T23:03:57.652Z,17.47
2022-10-12T23:06:26.653Z,18.27
2022-10-12T23:08:55.131Z,17.70
2022-10-12T23:11:25.533Z,14.63
2022-10-12T23:13:53.943Z,15.97
2022-10-12T23:16:24.025Z,19.67
2022-10-12T23:18:59.077Z,18.83
2022-10-12T23:21:30.064Z,15.53
2022-10-12T23:23:59.104Z,14.90
2022-10-12T23:26:29.110Z,13.77
2022-10-12T23:28:58.213Z,13.63
2022-10-12T23:31:28.141Z,12.47
2022-10-12T23:33:57.436Z,16.47
2022-10-12T23:36:25.740Z,15.83
2022-10-12T23:38:55.427Z,18.13
2022-10-12T23:41:24.438Z,15.30
2022-10-12T23:43:52.727Z,21.80
2022-10-12T23:46:20.932Z,13.43
2022-10-12T23:48:49.158Z,16.20
2022-10-12T23:51:17.366Z,14.43
2022-10-12T23:53:45.625Z,16.90
2022-10-12T23:56:15.809Z,14.70
2022-10-12T23:58:44.123Z,13.20
